createdAt,value
2018-06-14T00:20:29.562Z,3.53
2018-06-14T00:22:57.869Z,2.00
2018-06-14T00:25:26.189Z,2.73
2018-06-14T00:27:54.515Z,3.90
2018-06-14T00:30:22.826Z,2.63
2018-06-14T00:32:51.178Z,2.63
2018-06-14T00:35:19.482Z,2.73
2018-06-14T00:37:47.801Z,4.13
2018-06-14T00:40:16.125Z,3.43
2018-06-14T00:42:44.457Z,1.50
2018-06-14T00:45:12.789Z,2.57
2018-06-14T00:47:41.102Z,2.33
2018-06-14T00:50:09.425Z,2.63
2018-06-14T00:52:37.712Z,3.10
2018-06-14T00:55:05.996Z,2.77
2018-06-14T00:57:34.277Z,1.50
2018-06-14T01:00:02.559Z,3.03
2018-06-14T01:02:30.843Z,1.43
2018-06-14T01:04:59.119Z,5.00
2018-06-14T01:07:27.384Z,4.07
2018-06-14T01:09:55.656Z,3.50
2018-06-14T01:12:23.938Z,6.80
2018-06-14T01:20:37.537Z,1.77
2018-06-14T01:28:55.516Z,3.43
2018-06-14T01:31:23.845Z,2.93
2018-06-14T01:33:52.186Z,3.03
2018-06-14T01:36:20.486Z,3.33
2018-06-14T01:38:48.774Z,2.00
2018-06-14T01:41:17.118Z,1.90
2018-06-14T01:43:45.453Z,5.63
2018-06-14T01:46:13.741Z,1.60
2018-06-14T01:48:42.062Z,3.50
2018-06-14T01:51:10.385Z,2.73
2018-06-14T01:53:38.669Z,5.17
2018-06-14T01:56:06.969Z,2.73
2018-06-14T01:58:35.316Z,2.40
2018-06-14T02:01:03.596Z,3.37
2018-06-14T02:03:31.901Z,1.73
2018-06-14T02:06:00.173Z,5.13
2018-06-14T02:08:28.716Z,5.90
2018-06-14T02:10:57.021Z,4.83
2018-06-14T02:13:31.444Z,3.07
2018-06-14T02:15:59.720Z,1.97
2018-06-14T03:18:36.979Z,2.33
2018-06-14T03:21:05.290Z,3.27
2018-06-14T04:12:11.489Z,6.83
2018-06-14T04:14:40.160Z,5.33
2018-06-14T04:17:08.492Z,5.50
2018-06-14T04:19:53.537Z,2.37
2018-06-14T05:13:54.297Z,6.63
2018-06-14T05:16:22.597Z,3.90
2018-06-14T05:18:50.905Z,4.10
2018-06-14T05:21:19.360Z,8.60
2018-06-14T05:26:40.157Z,7.07
2018-06-14T05:29:08.481Z,5.57
2018-06-14T05:31:36.801Z,4.80
2018-06-14T05:34:05.125Z,5.57
2018-06-14T05:36:33.456Z,5.83
2018-06-14T05:39:01.774Z,3.67
2018-06-14T05:41:30.101Z,5.93
2018-06-14T05:43:58.428Z,4.93
2018-06-14T05:46:26.802Z,5.10
2018-06-14T05:48:55.167Z,3.67
2018-06-14T05:51:23.474Z,3.73
2018-06-14T05:53:51.797Z,4.07
2018-06-14T05:56:20.104Z,4.67
2018-06-14T05:58:48.393Z,3.33
2018-06-14T06:01:16.645Z,3.90
2018-06-14T06:03:44.914Z,4.53
2018-06-14T06:06:13.194Z,4.40
2018-06-14T06:08:41.470Z,3.50
2018-06-14T06:11:09.815Z,3.87
2018-06-14T06:13:38.093Z,3.27
2018-06-14T06:16:06.370Z,4.03
2018-06-14T06:21:27.797Z,3.37
2018-06-14T06:26:48.798Z,3.20
2018-06-14T06:29:17.130Z,5.10
2018-06-14T06:31:45.449Z,4.77
2018-06-14T06:34:13.776Z,4.87
2018-06-14T06:36:42.113Z,4.57
2018-06-14T06:39:11.942Z,5.00
2018-06-14T06:41:40.326Z,5.53
2018-06-14T06:44:09.000Z,3.43
2018-06-14T06:46:37.316Z,3.37
2018-06-14T06:49:05.633Z,2.80
2018-06-14T06:51:33.932Z,3.07
2018-06-14T06:54:02.249Z,3.57
2018-06-14T06:56:30.553Z,2.70
2018-06-14T06:58:58.904Z,3.17
2018-06-14T07:01:27.153Z,4.60
2018-06-14T07:03:55.426Z,4.23
2018-06-14T07:06:23.786Z,3.47
2018-06-14T07:08:52.045Z,3.47
2018-06-14T07:11:20.348Z,6.40
2018-06-14T07:13:48.661Z,6.00
2018-06-14T07:16:16.914Z,6.33
2018-06-14T07:19:05.642Z,4.53
2018-06-14T08:13:06.860Z,4.33
2018-06-14T08:15:35.169Z,4.10
2018-06-14T08:21:18.871Z,4.90
2018-06-14T08:26:39.793Z,4.50
2018-06-14T08:29:08.173Z,4.83
2018-06-14T08:31:36.600Z,4.97
2018-06-14T08:34:04.902Z,5.10
2018-06-14T08:36:33.245Z,7.20
2018-06-14T08:39:01.557Z,8.17
2018-06-14T08:41:29.864Z,5.47
2018-06-14T08:43:58.157Z,5.23
2018-06-14T08:46:26.522Z,6.43
2018-06-14T08:48:54.842Z,5.17
2018-06-14T08:51:23.126Z,5.63
2018-06-14T08:53:51.458Z,5.87
2018-06-14T08:56:19.733Z,5.10
2018-06-14T08:58:48.014Z,5.23
2018-06-14T09:01:16.289Z,8.07
2018-06-14T09:03:44.590Z,5.30
2018-06-14T09:06:12.870Z,5.33
2018-06-14T09:08:41.159Z,6.73
2018-06-14T09:11:09.413Z,5.70
2018-06-14T09:13:37.749Z,5.27
2018-06-14T09:16:06.017Z,4.77
2018-06-14T09:21:46.806Z,5.27
2018-06-14T09:26:25.533Z,5.47
2018-06-14T09:28:54.006Z,6.23
2018-06-14T09:31:22.334Z,4.83
2018-06-14T09:33:50.666Z,6.83
2018-06-14T09:36:18.977Z,4.30
2018-06-14T09:38:47.365Z,4.63
2018-06-14T09:41:15.683Z,5.20
2018-06-14T09:43:44.020Z,4.73
2018-06-14T09:46:12.325Z,5.03
2018-06-14T09:48:40.630Z,4.23
2018-06-14T09:51:08.970Z,5.90
2018-06-14T09:53:37.262Z,5.17
2018-06-14T09:56:05.681Z,5.07
2018-06-14T09:58:33.954Z,5.83
2018-06-14T10:01:02.241Z,6.20
2018-06-14T10:03:30.512Z,5.13
2018-06-14T10:05:58.942Z,6.57
2018-06-14T10:08:27.229Z,4.90
2018-06-14T10:10:55.535Z,4.93
2018-06-14T10:13:24.026Z,5.27
2018-06-14T10:15:52.292Z,6.77
2018-06-14T10:18:20.578Z,7.23
2018-06-14T10:23:41.461Z,5.80
2018-06-14T10:29:02.525Z,6.37
2018-06-14T10:31:30.876Z,5.10
2018-06-14T10:33:59.189Z,6.23
2018-06-14T10:36:27.527Z,5.73
2018-06-14T10:38:55.861Z,5.37
2018-06-14T10:41:24.157Z,6.30
2018-06-14T10:43:52.485Z,5.23
2018-06-14T10:46:20.825Z,6.00
2018-06-14T10:48:49.156Z,6.53
2018-06-14T10:51:17.477Z,6.90
2018-06-14T10:53:45.813Z,5.97
2018-06-14T10:56:14.141Z,6.53
2018-06-14T10:58:42.433Z,7.17
2018-06-14T11:01:10.717Z,5.90
2018-06-14T11:03:39.018Z,6.07
2018-06-14T11:06:07.313Z,5.93
2018-06-14T11:08:35.585Z,6.10
2018-06-14T11:11:03.862Z,6.23
2018-06-14T11:13:46.796Z,9.67
2018-06-14T11:16:15.097Z,7.17
2018-06-14T11:24:41.110Z,10.60
2018-06-14T11:27:09.414Z,6.33
2018-06-14T11:29:37.720Z,5.07
2018-06-14T11:32:06.129Z,6.30
2018-06-14T11:34:34.430Z,5.57
2018-06-14T11:37:02.743Z,6.37
2018-06-14T11:39:31.110Z,5.30
2018-06-14T11:41:59.668Z,5.77
2018-06-14T11:44:27.961Z,6.33
2018-06-14T11:46:56.289Z,5.70
2018-06-14T11:49:24.584Z,6.10
2018-06-14T11:51:52.911Z,6.03
2018-06-14T11:54:21.205Z,7.13
2018-06-14T11:56:49.479Z,5.37
2018-06-14T11:59:17.783Z,5.27
2018-06-14T12:01:46.124Z,5.53
2018-06-14T12:04:14.376Z,5.43
2018-06-14T12:06:42.654Z,5.37
2018-06-14T12:09:10.946Z,5.07
2018-06-14T12:11:39.247Z,14.20
2018-06-14T12:14:09.613Z,4.90
2018-06-14T12:16:37.904Z,5.03
2018-06-14T12:24:51.569Z,6.50
2018-06-14T12:27:19.895Z,5.27
2018-06-14T12:29:48.230Z,5.03
2018-06-14T12:32:16.572Z,4.90
2018-06-14T12:34:44.874Z,5.57
2018-06-14T12:37:13.209Z,4.90
2018-06-14T12:39:41.504Z,6.33
2018-06-14T12:42:09.828Z,4.43
2018-06-14T12:44:38.146Z,6.20
2018-06-14T12:47:06.425Z,6.33
2018-06-14T12:49:34.718Z,6.37
2018-06-14T12:52:03.037Z,4.30
2018-06-14T12:54:31.365Z,5.67
2018-06-14T12:56:59.666Z,5.20
2018-06-14T12:59:27.950Z,6.60
2018-06-14T13:01:56.230Z,5.20
2018-06-14T13:04:24.501Z,6.90
2018-06-14T13:06:52.767Z,4.90
2018-06-14T13:09:21.043Z,5.73
2018-06-14T13:11:49.320Z,8.53
2018-06-14T13:20:03.847Z,4.40
2018-06-14T13:22:32.514Z,7.00
2018-06-14T13:25:00.839Z,4.07
2018-06-14T13:27:29.165Z,4.47
2018-06-14T13:29:57.500Z,4.10
2018-06-14T13:32:25.819Z,4.13
2018-06-14T13:34:54.141Z,4.00
2018-06-14T13:37:22.485Z,4.87
2018-06-14T13:39:50.831Z,4.53
2018-06-14T13:42:19.145Z,4.30
2018-06-14T13:44:47.465Z,4.93
2018-06-14T13:47:15.797Z,4.07
2018-06-14T13:49:44.090Z,4.40
2018-06-14T13:52:12.383Z,4.77
2018-06-14T13:54:40.662Z,5.77
2018-06-14T13:57:08.954Z,4.03
2018-06-14T13:59:37.229Z,4.20
2018-06-14T14:02:05.515Z,4.57
2018-06-14T14:04:33.790Z,4.23
2018-06-14T14:07:05.533Z,4.60
2018-06-14T14:09:34.017Z,4.30
2018-06-14T14:12:02.287Z,4.33
2018-06-14T14:20:18.158Z,5.43
2018-06-14T14:22:48.213Z,7.13
2018-06-14T14:28:09.330Z,4.13
2018-06-14T14:30:37.604Z,5.53
2018-06-14T14:33:05.879Z,4.97
2018-06-14T14:35:34.168Z,4.63
2018-06-14T14:38:02.496Z,4.73
2018-06-14T14:40:30.781Z,4.30
2018-06-14T14:42:59.091Z,4.33
2018-06-14T14:45:27.337Z,4.40
2018-06-14T14:47:55.613Z,4.20
2018-06-14T14:50:23.895Z,4.30
2018-06-14T14:52:52.174Z,3.60
2018-06-14T14:55:20.429Z,3.97
2018-06-14T14:57:48.725Z,3.67
2018-06-14T15:00:17.001Z,3.60
2018-06-14T15:02:45.269Z,3.60
2018-06-14T15:05:13.537Z,3.13
2018-06-14T15:07:41.816Z,3.73
2018-06-14T15:10:10.073Z,3.50
2018-06-14T15:12:38.341Z,3.70
2018-06-14T15:21:07.485Z,4.20
2018-06-14T15:26:28.751Z,4.07
2018-06-14T15:28:57.043Z,4.03
2018-06-14T15:31:25.358Z,3.67
2018-06-14T15:33:54.195Z,3.63
2018-06-14T15:36:22.525Z,3.47
2018-06-14T15:38:50.821Z,3.97
2018-06-14T15:41:19.133Z,3.57
2018-06-14T15:43:47.446Z,4.03
2018-06-14T15:46:15.744Z,3.30
2018-06-14T15:48:44.075Z,3.63
2018-06-14T15:51:12.386Z,3.50
2018-06-14T15:53:40.718Z,3.90
2018-06-14T15:56:25.625Z,3.50
2018-06-14T15:58:53.940Z,3.73
2018-06-14T16:01:22.906Z,3.80
2018-06-14T16:03:51.190Z,4.23
2018-06-14T16:06:19.460Z,3.80
2018-06-14T16:08:47.947Z,4.10
2018-06-14T16:11:16.483Z,3.83
2018-06-14T16:13:44.745Z,4.00
2018-06-14T16:19:05.823Z,3.70
2018-06-14T16:21:34.357Z,3.50
2018-06-14T17:14:39.302Z,3.87
2018-06-14T17:17:07.636Z,3.73
2018-06-14T17:20:06.329Z,4.07
2018-06-14T17:25:12.814Z,4.13
2018-06-14T17:27:41.165Z,4.63
2018-06-14T17:30:09.559Z,5.43
2018-06-14T17:32:37.840Z,3.83
2018-06-14T17:35:06.150Z,4.37
2018-06-14T17:37:34.465Z,3.90
2018-06-14T17:40:02.817Z,4.20
2018-06-14T17:42:31.126Z,4.23
2018-06-14T17:44:59.418Z,3.97
2018-06-14T17:47:27.762Z,3.90
2018-06-14T17:49:56.081Z,4.20
2018-06-14T17:52:24.414Z,4.17
2018-06-14T17:54:52.735Z,4.00
2018-06-14T17:57:21.016Z,4.00
2018-06-14T17:59:49.311Z,6.43
2018-06-14T18:02:17.885Z,3.80
2018-06-14T18:04:46.243Z,4.63
2018-06-14T18:07:14.519Z,4.30
2018-06-14T18:09:42.801Z,4.73
2018-06-14T18:12:11.084Z,4.00
2018-06-14T18:23:32.876Z,5.63
2018-06-14T18:26:03.378Z,4.23
2018-06-14T18:28:31.749Z,4.40
2018-06-14T18:31:00.091Z,4.30
2018-06-14T18:33:28.402Z,4.50
2018-06-14T18:35:56.725Z,4.50
2018-06-14T18:38:25.062Z,4.90
2018-06-14T18:40:53.352Z,4.37
2018-06-14T18:43:21.684Z,4.70
2018-06-14T18:45:50.840Z,4.50
2018-06-14T18:48:19.144Z,4.70
2018-06-14T18:50:47.514Z,6.30
2018-06-14T18:53:15.838Z,5.23
2018-06-14T18:55:44.149Z,6.10
2018-06-14T18:58:12.426Z,5.57
2018-06-14T19:00:40.717Z,4.43
2018-06-14T19:03:09.013Z,4.40
2018-06-14T19:05:37.292Z,4.90
2018-06-14T19:08:05.589Z,4.70
2018-06-14T19:10:33.858Z,5.43
2018-06-14T19:13:02.140Z,4.37
2018-06-14T19:21:45.873Z,5.00
2018-06-14T19:24:16.964Z,4.60
2018-06-14T19:27:01.756Z,4.40
2018-06-14T19:29:30.222Z,4.73
2018-06-14T19:31:58.710Z,4.47
2018-06-14T19:34:27.030Z,4.73
2018-06-14T19:36:55.344Z,6.27
2018-06-14T19:39:23.661Z,4.90
2018-06-14T19:41:51.979Z,8.33
2018-06-14T19:44:20.317Z,6.80
2018-06-14T19:46:48.613Z,8.33
2018-06-14T19:49:16.990Z,17.00
2018-06-14T19:51:45.265Z,20.30
2018-06-14T19:54:13.581Z,23.63
2018-06-14T19:56:41.864Z,24.27
2018-06-14T19:59:10.138Z,24.37
2018-06-14T20:01:38.450Z,25.83
2018-06-14T20:04:06.735Z,27.43
2018-06-14T20:06:35.053Z,28.07
2018-06-14T20:09:03.625Z,30.30
2018-06-14T20:11:31.938Z,32.03
2018-06-14T20:14:00.258Z,38.93
2018-06-14T20:16:28.569Z,33.00
2018-06-14T20:19:00.285Z,32.60
2018-06-14T20:21:28.677Z,31.57
2018-06-14T20:24:03.351Z,32.40
2018-06-14T21:12:15.899Z,29.23
2018-06-14T21:14:44.213Z,28.40
2018-06-14T21:17:13.164Z,27.60
2018-06-14T21:25:36.665Z,30.63
2018-06-14T21:28:05.025Z,30.93
2018-06-14T21:30:33.351Z,31.70
2018-06-14T21:33:01.746Z,31.20
2018-06-14T21:35:30.045Z,30.97
2018-06-14T21:37:58.422Z,33.70
2018-06-14T21:40:26.902Z,31.60
2018-06-14T21:42:55.229Z,32.87
2018-06-14T21:45:23.550Z,31.47
2018-06-14T21:47:51.876Z,32.30
2018-06-14T21:50:20.202Z,31.60
2018-06-14T21:52:48.525Z,32.03
2018-06-14T21:55:16.852Z,30.93
2018-06-14T21:57:45.129Z,30.93
2018-06-14T22:00:13.394Z,30.80
2018-06-14T22:02:47.067Z,29.57
2018-06-14T22:05:16.155Z,30.50
2018-06-14T22:07:44.437Z,30.93
2018-06-14T22:10:12.709Z,30.60
2018-06-14T22:13:03.933Z,31.13
2018-06-14T22:15:32.235Z,29.57
2018-06-14T22:23:56.341Z,28.90
2018-06-14T22:26:24.685Z,29.00
2018-06-14T22:28:53.022Z,28.00
2018-06-14T22:31:21.357Z,28.33
2018-06-14T22:34:00.862Z,27.77
2018-06-14T22:36:29.260Z,29.20
2018-06-14T22:38:57.579Z,28.43
2018-06-14T22:41:25.905Z,29.33
2018-06-14T22:43:54.232Z,27.73
2018-06-14T22:46:22.550Z,28.57
2018-06-14T22:48:50.858Z,33.57
2018-06-14T22:51:20.358Z,27.80
2018-06-14T22:53:48.692Z,27.87
2018-06-14T22:56:16.985Z,27.97
2018-06-14T22:58:45.596Z,27.60
2018-06-14T23:01:46.237Z,27.63
2018-06-14T23:04:17.969Z,27.30
2018-06-14T23:06:46.266Z,28.27
2018-06-14T23:10:29.944Z,27.77
2018-06-14T23:12:58.214Z,27.20
2018-06-14T23:15:26.538Z,29.17
2018-06-14T23:26:43.401Z,28.57
2018-06-14T23:29:11.700Z,29.13
2018-06-14T23:31:40.043Z,29.80
2018-06-14T23:34:08.356Z,28.67
2018-06-14T23:36:36.681Z,29.43
2018-06-14T23:39:06.592Z,30.07
2018-06-14T23:41:34.913Z,28.27
2018-06-14T23:44:03.229Z,28.30
2018-06-14T23:46:31.546Z,29.37
2018-06-14T23:48:59.833Z,30.07
2018-06-14T23:51:28.161Z,27.87
2018-06-14T23:53:56.486Z,29.73
2018-06-14T23:56:24.829Z,32.40
2018-06-14T23:58:53.117Z,29.07
